Time;durP1;ratioP1;P1;durP2;ratioP2;P2;SDS_P1;SDS_P2;PMS_P1;PMS_P2;Temp;Humidity;BMP_temperature;BMP_pressure;BME280_temperature;BME280_humidity;BME280_pressure;Samples;Min_cycle;Max_cycle;Signal;HPM_P1;HPM_P2
2022/11/02 00:00:56;;;;;;;3.28;2.13;;;12.20;99.90;;;;;;5005628;28;20072;-77
2022/11/02 00:03:22;;;;;;;3.40;1.88;;;12.20;99.90;;;;;;5005528;28;20038;-78
2022/11/02 00:05:47;;;;;;;5.70;2.35;;;12.20;99.90;;;;;;5006661;28;20452;-77
2022/11/02 00:08:13;;;;;;;5.90;2.10;;;12.20;99.90;;;;;;5006053;28;20137;-77
2022/11/02 00:10:38;;;;;;;2.95;1.23;;;12.20;99.90;;;;;;5005243;28;20598;-77
2022/11/02 00:13:04;;;;;;;3.67;1.75;;;12.20;99.90;;;;;;5004980;28;20569;-77
2022/11/02 00:15:33;;;;;;;2.38;1.48;;;12.20;99.90;;;;;;5006176;28;20111;-77
2022/11/02 00:18:03;;;;;;;2.75;1.95;;;12.20;99.90;;;;;;5005951;28;20338;-77
2022/11/02 00:20:29;;;;;;;1.92;1.52;;;12.20;99.90;;;;;;5005081;28;20076;-77
2022/11/02 00:22:58;;;;;;;1.98;1.73;;;12.20;99.90;;;;;;5005350;28;20038;-77
2022/11/02 00:25:25;;;;;;;5.68;1.92;;;12.10;99.90;;;;;;4999115;28;20077;-77
2022/11/02 00:27:50;;;;;;;5.63;1.63;;;12.10;99.90;;;;;;4985426;28;20038;-78
2022/11/02 00:30:16;;;;;;;3.83;1.88;;;12.10;99.90;;;;;;4985660;28;20390;-77
2022/11/02 00:32:42;;;;;;;6.22;1.70;;;12.10;99.90;;;;;;4985213;28;20065;-77
2022/11/02 00:35:09;;;;;;;3.03;1.60;;;12.10;99.90;;;;;;4985804;28;20479;-77
2022/11/02 00:37:34;;;;;;;5.05;2.55;;;12.00;99.90;;;;;;4986038;28;20054;-77
2022/11/02 00:40:00;;;;;;;3.70;1.42;;;12.00;99.90;;;;;;4986284;28;20044;-77
2022/11/02 00:42:25;;;;;;;3.97;2.00;;;12.00;99.90;;;;;;4985703;28;20064;-77
2022/11/02 00:44:51;;;;;;;3.50;1.60;;;12.00;99.90;;;;;;4985672;28;20089;-78
2022/11/02 00:47:16;;;;;;;3.38;1.27;;;12.00;99.90;;;;;;4985643;28;20093;-77
2022/11/02 00:49:42;;;;;;;2.60;1.95;;;12.00;99.90;;;;;;4986225;28;20053;-77
2022/11/02 00:52:08;;;;;;;4.93;1.85;;;11.90;99.90;;;;;;4985639;28;20054;-77
2022/11/02 00:54:34;;;;;;;1.85;1.75;;;11.90;99.90;;;;;;4986311;28;20050;-77
2022/11/02 00:57:00;;;;;;;3.95;1.60;;;11.80;99.90;;;;;;4984557;28;20528;-77
2022/11/02 00:59:25;;;;;;;2.92;1.35;;;11.80;99.90;;;;;;4985288;28;20345;-77
2022/11/02 01:01:51;;;;;;;3.10;2.10;;;11.80;99.90;;;;;;4985289;28;20050;-77
2022/11/02 01:04:16;;;;;;;6.97;1.85;;;11.70;99.90;;;;;;4977062;28;20038;-77
2022/11/02 01:06:43;;;;;;;2.78;1.58;;;11.70;99.90;;;;;;5005673;28;20378;-77
2022/11/02 01:09:09;;;;;;;7.55;1.80;;;11.70;99.90;;;;;;5003990;28;20462;-77
2022/11/02 01:11:35;;;;;;;3.88;1.35;;;11.70;99.90;;;;;;5005228;28;20130;-77
2022/11/02 01:14:01;;;;;;;1.98;0.98;;;11.70;99.90;;;;;;5004759;28;20512;-77
2022/11/02 01:16:27;;;;;;;3.97;1.15;;;11.70;99.90;;;;;;5004101;28;20037;-77
2022/11/02 01:18:53;;;;;;;4.18;1.10;;;11.70;99.90;;;;;;5005333;28;20084;-78
2022/11/02 01:21:20;;;;;;;2.67;1.02;;;11.70;99.90;;;;;;5004550;28;20153;-77
2022/11/02 01:23:46;;;;;;;4.05;1.80;;;11.70;99.90;;;;;;5005551;28;20175;-77
2022/11/02 01:26:12;;;;;;;2.97;1.38;;;11.80;99.90;;;;;;4992143;28;20073;-77
2022/11/02 01:28:38;;;;;;;4.03;2.33;;;11.70;99.90;;;;;;4988805;28;20045;-77
2022/11/02 01:31:05;;;;;;;3.78;1.48;;;11.70;99.90;;;;;;5003998;28;20052;-77
2022/11/02 01:33:31;;;;;;;1.63;1.10;;;11.80;99.90;;;;;;5003410;28;20128;-77
2022/11/02 01:35:56;;;;;;;2.05;1.33;;;11.80;99.90;;;;;;5004734;28;20049;-77
2022/11/02 01:38:22;;;;;;;4.10;1.73;;;11.70;99.90;;;;;;5005213;28;20042;-78
2022/11/02 01:40:48;;;;;;;5.07;2.00;;;11.70;99.90;;;;;;4994901;28;20050;-77
2022/11/02 01:43:26;;;;;;;10.07;2.33;;;11.70;99.90;;;;;;4983974;28;20354;-77
2022/11/02 01:46:17;;;;;;;1.67;1.02;;;11.70;99.90;;;;;;4983461;28;20173;-78
2022/11/02 01:48:45;;;;;;;2.40;1.20;;;11.60;99.90;;;;;;4985594;28;20049;-77
2022/11/02 01:51:25;;;;;;;3.35;1.92;;;11.60;99.90;;;;;;4985077;28;20082;-77
2022/11/02 01:53:54;;;;;;;1.00;0.90;;;11.60;99.90;;;;;;4983895;28;20054;-78
2022/11/02 01:56:22;;;;;;;3.13;1.45;;;11.50;99.90;;;;;;4985276;28;20576;-78
2022/11/02 01:58:55;;;;;;;3.63;1.15;;;11.50;99.90;;;;;;4985100;28;20205;-77
2022/11/02 02:01:21;;;;;;;3.65;1.42;;;11.50;99.90;;;;;;4984820;28;20065;-78
2022/11/02 02:03:49;;;;;;;3.60;1.00;;;11.40;99.90;;;;;;4986002;28;20053;-77
2022/11/02 02:06:16;;;;;;;1.88;1.05;;;11.40;99.90;;;;;;4983946;28;20050;-77
2022/11/02 02:08:45;;;;;;;4.45;1.25;;;11.40;99.90;;;;;;4984264;28;20065;-77
2022/11/02 02:11:30;;;;;;;1.15;0.60;;;11.40;99.90;;;;;;4984851;28;20378;-77
2022/11/02 02:14:17;;;;;;;2.22;1.08;;;11.40;99.90;;;;;;5038823;23;20054;-77
2022/11/02 02:16:46;;;;;;;5.25;1.30;;;11.30;99.90;;;;;;4965158;28;20043;-77
2022/11/02 02:19:38;;;;;;;1.98;0.98;;;11.30;99.90;;;;;;4965457;28;20050;-77
2022/11/02 02:22:24;;;;;;;2.40;1.00;;;11.30;99.90;;;;;;4964233;28;20126;-77
2022/11/02 02:25:11;;;;;;;0.98;0.88;;;11.30;99.90;;;;;;4965544;28;20057;-78
2022/11/02 02:28:03;;;;;;;1.45;0.77;;;11.30;99.90;;;;;;4969069;28;20082;-77
2022/11/02 02:30:33;;;;;;;1.90;0.80;;;11.20;99.90;;;;;;4986383;28;20054;-77
2022/11/02 02:33:11;;;;;;;3.72;2.17;;;11.20;99.90;;;;;;4987635;28;20038;-77
2022/11/02 02:35:47;;;;;;;3.35;1.73;;;11.20;99.90;;;;;;4989115;28;20043;-77
2022/11/02 02:38:33;;;;;;;2.45;1.17;;;11.10;99.90;;;;;;4987786;28;20050;-77
2022/11/02 02:41:10;;;;;;;5.40;1.67;;;11.10;99.90;;;;;;4987429;28;20054;-77
2022/11/02 02:43:47;;;;;;;2.40;1.10;;;11.10;99.90;;;;;;4988069;28;20499;-77
2022/11/02 02:46:32;;;;;;;5.57;1.77;;;11.10;99.90;;;;;;4988884;28;20065;-77
2022/11/02 02:48:59;;;;;;;1.95;0.98;;;11.10;99.90;;;;;;4988813;28;20050;-77
2022/11/02 02:51:28;;;;;;;2.65;1.50;;;11.20;99.90;;;;;;4988539;28;20038;-77
2022/11/02 02:54:08;;;;;;;2.55;0.70;;;11.20;99.90;;;;;;4988575;28;20412;-78
2022/11/02 02:56:49;;;;;;;4.53;1.80;;;11.20;99.90;;;;;;4988449;28;20041;-77
2022/11/02 02:59:23;;;;;;;1.63;0.95;;;11.20;99.90;;;;;;4988870;28;20054;-77
2022/11/02 03:01:50;;;;;;;2.80;1.45;;;11.20;99.90;;;;;;4987924;28;20177;-77
2022/11/02 03:04:15;;;;;;;2.80;1.33;;;11.20;99.90;;;;;;4969529;28;20051;-77
2022/11/02 03:06:45;;;;;;;3.08;1.58;;;11.20;99.90;;;;;;4969066;28;20046;-77
2022/11/02 03:09:38;;;;;;;0.95;0.82;;;11.20;99.90;;;;;;4967859;28;20047;-77
2022/11/02 03:12:22;;;;;;;1.70;0.88;;;11.20;99.90;;;;;;4967679;28;20493;-77
2022/11/02 03:15:24;;;;;;;0.75;0.63;;;11.20;99.90;;;;;;4969410;28;20122;-77
2022/11/02 03:18:08;;;;;;;1.42;0.95;;;11.20;99.90;;;;;;4956856;28;20073;-78
2022/11/02 03:20:56;;;;;;;1.10;0.82;;;11.10;99.90;;;;;;4969074;28;20054;-77
2022/11/02 03:23:42;;;;;;;7.47;2.08;;;11.10;99.90;;;;;;4968627;28;20413;-77
2022/11/02 03:26:22;;;;;;;0.82;0.80;;;11.10;99.90;;;;;;4956534;28;20074;-77
2022/11/02 03:29:01;;;;;;;2.17;0.85;;;11.10;99.90;;;;;;4947666;29;20062;-77
2022/11/02 03:31:50;;;;;;;2.65;1.25;;;11.00;99.90;;;;;;4948341;29;20054;-77
2022/11/02 03:34:30;;;;;;;3.28;1.02;;;11.00;99.90;;;;;;4949760;28;20434;-77
2022/11/02 03:36:59;;;;;;;3.17;1.83;;;11.00;99.90;;;;;;4947816;29;20054;-77
2022/11/02 03:39:34;;;;;;;3.80;1.38;;;11.00;99.90;;;;;;4948177;28;20074;-77
2022/11/02 03:42:02;;;;;;;8.57;1.67;;;11.00;99.90;;;;;;4948039;28;20122;-77
2022/11/02 03:44:32;;;;;;;1.88;1.50;;;11.00;99.90;;;;;;4949091;28;20047;-77
2022/11/02 03:47:01;;;;;;;10.38;1.33;;;11.00;99.90;;;;;;4949029;28;20046;-77
2022/11/02 03:49:29;;;;;;;2.63;1.42;;;11.00;99.90;;;;;;4949030;28;20101;-77
2022/11/02 03:52:00;;;;;;;3.22;1.42;;;11.00;99.90;;;;;;4948682;28;20047;-77
2022/11/02 03:54:26;;;;;;;5.00;1.35;;;11.00;99.90;;;;;;4957970;28;20042;-75
2022/11/02 03:56:55;;;;;;;9.77;1.80;;;11.10;99.90;;;;;;4986494;28;20086;-76
2022/11/02 03:59:21;;;;;;;11.93;2.22;;;11.10;99.90;;;;;;4987911;28;20038;-75
2022/11/02 04:01:49;;;;;;;6.45;2.55;;;11.10;99.90;;;;;;4986669;28;20590;-75
2022/11/02 04:04:16;;;;;;;5.50;2.33;;;11.10;99.90;;;;;;4987955;28;20034;-75
2022/11/02 04:06:45;;;;;;;3.22;1.60;;;11.00;99.90;;;;;;4987376;28;20497;-75
2022/11/02 04:09:11;;;;;;;5.05;1.52;;;11.00;99.90;;;;;;4985776;28;20050;-75
2022/11/02 04:14:36;;;;;;;4.43;1.98;;;11.00;99.90;;;;;;4987137;28;20065;-75
2022/11/02 04:19:47;;;;;;;4.90;3.08;;;11.00;99.90;;;;;;4977469;28;20055;-75
2022/11/02 04:25:15;;;;;;;5.28;1.65;;;11.00;99.90;;;;;;4962991;28;20106;-75
2022/11/02 04:27:41;;;;;;;2.40;1.02;;;11.00;99.90;;;;;;4947667;28;20047;-75
2022/11/02 04:30:08;;;;;;;8.82;2.95;;;11.00;99.90;;;;;;4947742;29;20047;-75
2022/11/02 04:35:26;;;;;;;3.60;1.30;;;11.00;99.90;;;;;;4947113;29;20434;-75
2022/11/02 04:40:36;;;;;;;4.50;1.60;;;11.00;99.90;;;;;;4947925;29;20070;-75
2022/11/02 04:43:02;;;;;;;7.80;2.83;;;11.00;99.90;;;;;;4954344;28;20686;-75
2022/11/02 04:45:27;;;;;;;6.60;1.70;;;11.00;99.90;;;;;;4967426;28;20085;-75
2022/11/02 04:47:59;;;;;;;5.18;2.17;;;11.00;99.90;;;;;;4967235;28;20433;-75
2022/11/02 04:50:25;;;;;;;2.97;1.63;;;11.00;99.90;;;;;;4965866;28;20082;-75
2022/11/02 04:52:55;;;;;;;10.60;2.13;;;10.90;99.90;;;;;;4981672;28;20089;-75
2022/11/02 04:55:21;;;;;;;5.20;1.67;;;10.90;99.90;;;;;;4986712;28;20472;-76
2022/11/02 04:57:47;;;;;;;7.07;2.70;;;10.90;99.90;;;;;;4986141;28;20125;-75
2022/11/02 05:00:13;;;;;;;2.78;0.95;;;10.90;99.90;;;;;;4985002;28;20503;-75
2022/11/02 05:02:38;;;;;;;5.43;1.88;;;10.90;99.90;;;;;;4986575;28;20120;-75
2022/11/02 05:05:05;;;;;;;12.25;2.42;;;10.90;99.90;;;;;;4984782;28;20524;-75
2022/11/02 05:07:30;;;;;;;3.85;2.00;;;10.90;99.90;;;;;;4986222;28;20039;-75
2022/11/02 05:09:56;;;;;;;3.10;1.92;;;10.90;99.90;;;;;;4986089;28;20366;-75
2022/11/02 05:12:21;;;;;;;2.20;1.58;;;10.90;99.90;;;;;;4985417;28;20189;-76
2022/11/02 05:14:47;;;;;;;1.60;1.50;;;10.90;99.90;;;;;;4986863;28;20058;-75
2022/11/02 05:17:13;;;;;;;3.45;2.50;;;10.90;99.90;;;;;;4985834;28;20051;-75
2022/11/02 05:19:39;;;;;;;4.90;2.40;;;10.90;99.90;;;;;;4985036;28;20174;-75
2022/11/02 05:22:04;;;;;;;3.45;2.63;;;10.90;99.90;;;;;;4985932;28;20060;-75
2022/11/02 05:24:31;;;;;;;3.65;1.75;;;10.90;99.90;;;;;;4985049;28;20061;-77
2022/11/02 05:26:56;;;;;;;3.40;1.38;;;10.90;99.90;;;;;;4966246;28;20129;-77
2022/11/02 05:29:22;;;;;;;7.15;2.92;;;10.90;99.90;;;;;;4966547;28;20094;-78
2022/11/02 05:31:48;;;;;;;2.10;1.83;;;10.90;99.90;;;;;;4967177;28;20139;-77
2022/11/02 05:34:13;;;;;;;8.55;2.70;;;10.90;99.90;;;;;;4966448;28;20126;-77
2022/11/02 05:36:39;;;;;;;2.50;1.50;;;10.90;99.90;;;;;;4979258;28;20046;-77
2022/11/02 05:39:05;;;;;;;2.63;1.63;;;10.90;99.90;;;;;;4969006;28;20420;-76
2022/11/02 05:41:30;;;;;;;4.53;2.55;;;10.90;99.90;;;;;;4965718;28;20039;-77
2022/11/02 05:43:56;;;;;;;3.53;1.85;;;10.90;99.90;;;;;;4966536;28;20121;-77
2022/11/02 05:46:21;;;;;;;2.30;1.30;;;10.90;99.90;;;;;;4966741;28;20050;-77
2022/11/02 05:48:47;;;;;;;7.97;1.95;;;10.90;99.90;;;;;;4981888;28;20042;-77
2022/11/02 05:51:13;;;;;;;3.78;1.38;;;10.80;99.90;;;;;;4969937;28;20046;-77
2022/11/02 05:53:38;;;;;;;5.20;2.05;;;10.90;99.90;;;;;;4985599;28;20039;-77
2022/11/02 05:56:06;;;;;;;4.03;2.22;;;10.80;99.90;;;;;;4985590;28;20047;-77
2022/11/02 05:58:32;;;;;;;4.28;2.42;;;10.90;99.90;;;;;;4967351;28;20046;-77
2022/11/02 06:01:02;;;;;;;7.95;3.15;;;10.90;99.90;;;;;;4966160;28;20042;-77
2022/11/02 06:03:28;;;;;;;3.83;2.03;;;10.90;99.90;;;;;;4974317;28;20089;-77
2022/11/02 06:05:56;;;;;;;5.78;2.75;;;10.80;99.90;;;;;;4989454;28;20038;-77
2022/11/02 06:08:21;;;;;;;9.13;2.63;;;10.90;99.90;;;;;;4989631;28;20038;-77
2022/11/02 06:10:47;;;;;;;13.23;2.00;;;10.90;99.90;;;;;;4975089;28;20039;-77
2022/11/02 06:13:13;;;;;;;8.82;2.92;;;10.90;99.90;;;;;;4966946;28;20051;-77
2022/11/02 06:15:39;;;;;;;4.25;2.53;;;10.90;99.90;;;;;;4970044;28;20054;-77
2022/11/02 06:18:04;;;;;;;18.02;4.45;;;11.00;99.90;;;;;;4956575;28;20489;-77
2022/11/02 06:20:30;;;;;;;5.07;3.00;;;11.00;99.90;;;;;;4968963;28;20125;-77
2022/11/02 06:22:55;;;;;;;6.03;2.17;;;11.00;99.90;;;;;;4975215;28;20050;-77
2022/11/02 06:25:21;;;;;;;4.70;1.40;;;11.00;99.90;;;;;;4969703;28;20216;-75
2022/11/02 06:27:51;;;;;;;6.47;2.00;;;11.00;99.90;;;;;;4977633;28;20081;-75
2022/11/02 06:30:17;;;;;;;5.60;2.20;;;11.00;99.90;;;;;;4971561;28;20047;-75
2022/11/02 06:32:48;;;;;;;7.88;1.63;;;11.00;99.90;;;;;;4969770;28;20089;-76
2022/11/02 06:35:16;;;;;;;3.92;1.70;;;10.90;99.90;;;;;;4950197;28;20043;-76
2022/11/02 06:37:41;;;;;;;3.28;1.90;;;10.80;99.90;;;;;;4957456;28;20074;-76
2022/11/02 06:40:07;;;;;;;4.05;2.03;;;10.70;99.90;;;;;;4972616;28;20521;-75
2022/11/02 06:42:33;;;;;;;2.58;1.65;;;10.70;99.90;;;;;;4968113;28;20101;-79
2022/11/02 06:45:01;;;;;;;3.22;1.20;;;10.60;99.90;;;;;;4986514;28;20386;-78
2022/11/02 06:47:35;;;;;;;6.68;1.70;;;10.60;99.90;;;;;;4949447;28;20047;-77
2022/11/02 06:50:02;;;;;;;2.38;1.25;;;10.60;99.90;;;;;;4967459;28;20130;-76
2022/11/02 06:52:28;;;;;;;3.90;1.23;;;10.60;99.90;;;;;;4970679;28;20050;-77
2022/11/02 06:54:54;;;;;;;2.03;1.52;;;10.50;99.90;;;;;;4969078;28;20078;-78
2022/11/02 06:57:20;;;;;;;3.47;0.93;;;10.50;99.90;;;;;;4968673;28;20420;-79
2022/11/02 06:59:46;;;;;;;1.85;1.63;;;10.50;99.90;;;;;;4964130;28;20049;-76
2022/11/02 07:02:11;;;;;;;5.40;2.15;;;10.50;99.90;;;;;;4956025;28;20047;-77
2022/11/02 07:04:37;;;;;;;3.42;1.75;;;10.60;99.90;;;;;;4959855;28;20039;-77
2022/11/02 07:07:02;;;;;;;3.53;1.25;;;10.50;99.90;;;;;;4964861;28;20042;-77
2022/11/02 07:09:28;;;;;;;3.58;1.83;;;10.60;99.90;;;;;;4979714;28;20503;-77
2022/11/02 07:11:53;;;;;;;4.03;1.23;;;10.50;99.90;;;;;;4970750;28;20088;-78
2022/11/02 07:14:19;;;;;;;2.45;1.65;;;10.50;99.90;;;;;;4968458;28;20093;-81
2022/11/02 07:16:45;;;;;;;2.47;1.30;;;10.50;99.90;;;;;;4961873;28;20489;-81
2022/11/02 07:19:10;;;;;;;5.50;1.30;;;10.60;99.90;;;;;;4963217;28;20126;-81
2022/11/02 07:21:36;;;;;;;3.78;1.17;;;10.50;99.90;;;;;;4981669;28;20108;-82
2022/11/02 07:24:01;;;;;;;4.85;1.52;;;10.50;99.90;;;;;;4976638;28;20137;-80
2022/11/02 07:26:27;;;;;;;3.38;1.45;;;10.50;99.90;;;;;;4966799;28;20046;-81
2022/11/02 07:28:53;;;;;;;1.75;1.48;;;10.50;99.90;;;;;;4968748;28;20755;-87
2022/11/02 07:31:18;;;;;;;4.28;1.98;;;10.60;99.90;;;;;;4972581;28;20061;-84
2022/11/02 07:33:44;;;;;;;2.63;1.63;;;10.50;99.90;;;;;;4982312;28;20096;-85
2022/11/02 07:36:10;;;;;;;2.25;0.88;;;10.60;99.90;;;;;;4971963;28;20046;-86
2022/11/02 07:38:35;;;;;;;4.47;1.80;;;10.60;99.90;;;;;;4981385;28;20047;-84
2022/11/02 07:41:01;;;;;;;1.77;1.08;;;10.70;99.90;;;;;;4976672;28;20042;-84
2022/11/02 07:43:27;;;;;;;6.28;2.15;;;10.70;99.90;;;;;;4969321;28;20038;-85
2022/11/02 07:45:53;;;;;;;3.50;1.27;;;10.80;99.90;;;;;;4974279;28;20046;-84
2022/11/02 07:48:19;;;;;;;4.50;2.22;;;10.80;99.90;;;;;;4967837;28;20050;-84
2022/11/02 07:50:45;;;;;;;2.17;1.60;;;10.80;99.90;;;;;;4950834;28;20493;-82
2022/11/02 07:53:11;;;;;;;4.28;2.03;;;11.00;99.90;;;;;;4965148;28;20042;-79
2022/11/02 07:55:36;;;;;;;6.68;1.67;;;11.00;99.90;;;;;;4964143;28;20042;-78
2022/11/02 07:58:08;;;;;;;2.15;1.92;;;11.10;99.90;;;;;;4983619;28;20752;-81
2022/11/02 08:00:36;;;;;;;4.53;1.73;;;11.10;99.90;;;;;;4973780;28;20497;-81
2022/11/02 08:03:03;;;;;;;2.83;1.58;;;11.20;99.90;;;;;;4963853;28;20097;-83
2022/11/02 08:05:32;;;;;;;12.07;2.35;;;11.10;99.90;;;;;;4967605;28;20038;-77
2022/11/02 08:08:09;;;;;;;4.32;2.00;;;11.10;99.90;;;;;;4972383;28;20481;-82
2022/11/02 08:10:35;;;;;;;2.35;1.40;;;11.10;99.90;;;;;;4967296;28;20240;-85
2022/11/02 08:13:01;;;;;;;2.53;1.58;;;11.10;99.90;;;;;;4965706;28;20051;-84
2022/11/02 08:15:27;;;;;;;3.10;2.47;;;11.10;99.90;;;;;;4984649;28;20385;-83
2022/11/02 08:18:13;;;;;;;2.13;1.25;;;11.10;99.90;;;;;;4967179;28;20042;-84
2022/11/02 08:20:39;;;;;;;3.10;2.08;;;11.10;99.90;;;;;;4967287;28;20671;-81
2022/11/02 08:23:06;;;;;;;3.10;1.55;;;11.20;99.90;;;;;;4966924;28;20042;-84
2022/11/02 08:25:33;;;;;;;9.20;2.80;;;11.10;99.90;;;;;;4959204;28;20039;-80
2022/11/02 08:27:59;;;;;;;5.93;2.25;;;11.10;99.90;;;;;;4966018;28;20097;-82
2022/11/02 08:30:29;;;;;;;4.63;1.75;;;11.20;99.90;;;;;;4967232;28;20069;-82
2022/11/02 08:33:02;;;;;;;14.20;2.03;;;11.20;99.90;;;;;;4966964;28;20405;-79
2022/11/02 08:35:28;;;;;;;4.50;2.10;;;11.20;99.90;;;;;;4967184;28;20404;-83
2022/11/02 08:37:55;;;;;;;5.18;1.38;;;11.20;99.90;;;;;;4984037;28;20038;-81
2022/11/02 08:40:20;;;;;;;5.05;1.63;;;11.20;99.90;;;;;;4977984;28;20612;-81
2022/11/02 08:42:46;;;;;;;4.88;2.33;;;11.20;99.90;;;;;;4972609;28;20134;-83
2022/11/02 08:45:11;;;;;;;2.90;2.40;;;11.30;99.90;;;;;;4972890;28;20047;-79
2022/11/02 08:47:41;;;;;;;4.93;2.13;;;11.30;99.90;;;;;;4968300;28;20047;-83
2022/11/02 08:50:08;;;;;;;7.85;1.90;;;11.30;99.90;;;;;;4964991;28;20041;-79
2022/11/02 08:52:37;;;;;;;3.08;1.20;;;11.40;99.90;;;;;;4947136;28;20047;-79
2022/11/02 08:55:04;;;;;;;4.22;2.88;;;11.40;99.90;;;;;;4952526;28;20058;-80
2022/11/02 08:57:29;;;;;;;11.73;3.00;;;11.50;99.90;;;;;;4985487;28;20038;-80
2022/11/02 08:59:55;;;;;;;4.10;1.80;;;11.50;99.90;;;;;;4974718;28;20559;-81
2022/11/02 09:02:21;;;;;;;3.70;1.77;;;11.50;99.90;;;;;;4966514;28;20046;-81
2022/11/02 09:04:46;;;;;;;5.97;2.22;;;11.50;99.90;;;;;;4965632;28;20035;-80
2022/11/02 09:07:12;;;;;;;3.35;2.38;;;11.60;99.90;;;;;;4965385;28;20130;-80
2022/11/02 09:09:37;;;;;;;2.90;1.60;;;11.70;99.90;;;;;;4966400;28;20054;-80
2022/11/02 09:12:03;;;;;;;5.00;1.73;;;11.70;99.90;;;;;;4963772;28;20344;-80
2022/11/02 09:14:29;;;;;;;1.58;1.33;;;11.70;99.90;;;;;;4964987;28;20062;-80
2022/11/02 09:16:54;;;;;;;6.82;2.42;;;11.80;99.90;;;;;;4965884;28;20050;-80
2022/11/02 09:19:20;;;;;;;2.33;1.83;;;11.80;99.90;;;;;;4965083;28;20062;-81
2022/11/02 09:21:46;;;;;;;6.32;1.90;;;11.80;99.90;;;;;;4966931;28;20073;-81
2022/11/02 09:24:12;;;;;;;7.65;1.67;;;11.90;99.90;;;;;;4965212;28;20580;-80
2022/11/02 09:26:38;;;;;;;3.00;1.90;;;11.90;99.90;;;;;;4964059;28;20051;-81
2022/11/02 09:29:03;;;;;;;10.57;2.03;;;11.90;99.90;;;;;;4946819;29;20401;-80
2022/11/02 09:31:29;;;;;;;7.90;2.25;;;11.90;99.90;;;;;;4946582;29;20106;-81
2022/11/02 09:33:55;;;;;;;2.05;1.58;;;11.80;99.90;;;;;;4946979;29;20240;-81
2022/11/02 09:36:20;;;;;;;5.10;2.00;;;11.90;99.90;;;;;;4946015;28;20090;-81
2022/11/02 09:38:46;;;;;;;5.35;2.72;;;11.90;99.90;;;;;;4946984;29;20078;-80
2022/11/02 09:41:19;;;;;;;5.40;1.63;;;11.90;99.90;;;;;;4945971;29;20043;-80
2022/11/02 09:44:03;;;;;;;12.13;2.45;;;12.00;99.90;;;;;;4945881;29;20063;-80
2022/11/02 09:46:40;;;;;;;4.70;1.98;;;12.00;99.90;;;;;;4945590;29;20122;-81
2022/11/02 09:49:14;;;;;;;6.85;1.35;;;12.00;99.90;;;;;;4946725;28;20125;-80
2022/11/02 09:51:52;;;;;;;3.25;1.48;;;12.00;99.90;;;;;;4945494;29;20055;-80
2022/11/02 09:54:34;;;;;;;4.55;2.15;;;12.00;99.90;;;;;;4946026;29;20137;-81
2022/11/02 09:57:05;;;;;;;4.80;1.77;;;12.00;99.90;;;;;;4944424;29;20498;-81
2022/11/02 09:59:31;;;;;;;2.20;1.42;;;12.10;99.90;;;;;;4946862;28;20054;-81
2022/11/02 10:02:33;;;;;;;6.57;2.42;;;12.10;99.90;;;;;;4946375;28;20039;-81
2022/11/02 10:05:20;;;;;;;2.30;1.33;;;12.10;99.90;;;;;;4946593;28;20054;-81
2022/11/02 10:08:23;;;;;;;3.10;2.03;;;12.00;99.90;;;;;;4946707;29;20324;-80
2022/11/02 10:11:14;;;;;;;2.85;1.85;;;11.90;99.90;;;;;;4945151;29;20051;-80
2022/11/02 10:13:53;;;;;;;8.90;2.88;;;11.90;99.90;;;;;;4945076;29;20738;-80
2022/11/02 10:17:09;;;;;;;8.07;2.55;;;11.80;99.90;;;;;;4947020;28;20055;-81
2022/11/02 10:19:39;;;;;;;5.15;1.83;;;11.80;99.90;;;;;;4946418;28;20047;-81
2022/11/02 10:22:08;;;;;;;4.53;2.50;;;11.80;99.90;;;;;;4928932;29;20051;-81
2022/11/02 10:24:41;;;;;;;6.88;2.22;;;11.80;99.90;;;;;;4945413;29;20505;-80
2022/11/02 10:27:20;;;;;;;5.18;2.15;;;11.80;99.90;;;;;;4943911;29;20047;-80
2022/11/02 10:29:45;;;;;;;2.38;1.52;;;11.80;99.90;;;;;;4945410;29;20049;-81
2022/11/02 10:32:12;;;;;;;6.28;2.08;;;11.80;99.90;;;;;;4945811;28;20101;-80
2022/11/02 10:34:39;;;;;;;3.72;1.40;;;11.70;99.90;;;;;;4946701;28;20416;-80
2022/11/02 10:37:18;;;;;;;3.95;1.55;;;11.80;99.90;;;;;;4946306;28;20485;-81
2022/11/02 10:40:05;;;;;;;6.18;1.80;;;11.80;99.90;;;;;;4946246;28;20043;-81
2022/11/02 10:42:56;;;;;;;7.00;1.60;;;11.80;99.90;;;;;;4944080;29;20043;-81
2022/11/02 10:45:43;;;;;;;3.75;1.67;;;11.80;99.90;;;;;;4930775;28;20059;-81
2022/11/02 10:48:28;;;;;;;3.50;1.63;;;11.90;99.90;;;;;;4964248;28;20157;-82
2022/11/02 10:51:08;;;;;;;6.10;1.23;;;11.90;99.90;;;;;;4983069;28;20050;-81
2022/11/02 10:53:49;;;;;;;3.67;1.95;;;12.00;99.90;;;;;;4970200;28;20506;-81
2022/11/02 10:56:16;;;;;;;9.70;1.52;;;12.00;99.90;;;;;;4968348;28;20050;-80
2022/11/02 10:58:58;;;;;;;7.60;1.25;;;12.00;99.90;;;;;;4986830;28;20042;-80
2022/11/02 11:01:24;;;;;;;3.72;1.65;;;12.00;99.90;;;;;;4988549;28;20771;-80
2022/11/02 11:03:57;;;;;;;1.90;1.40;;;12.00;99.90;;;;;;4986762;28;20073;-81
2022/11/02 11:06:29;;;;;;;3.13;1.52;;;11.90;99.90;;;;;;4986870;28;20046;-80
2022/11/02 11:09:03;;;;;;;1.98;0.80;;;11.90;99.90;;;;;;4972370;28;20031;-78
2022/11/02 11:11:32;;;;;;;3.95;1.30;;;12.00;99.90;;;;;;4970504;28;20789;-79
2022/11/02 11:14:05;;;;;;;2.72;1.17;;;12.00;99.90;;;;;;4987280;28;20150;-79
2022/11/02 11:16:35;;;;;;;3.20;1.60;;;12.00;99.90;;;;;;4986506;28;20133;-79
2022/11/02 11:19:03;;;;;;;3.33;1.52;;;12.10;99.90;;;;;;4986197;28;20054;-79
2022/11/02 11:21:39;;;;;;;3.20;1.58;;;12.10;99.90;;;;;;4988240;28;20046;-79
2022/11/02 11:24:26;;;;;;;11.07;1.58;;;12.20;99.90;;;;;;4969984;28;20057;-78
2022/11/02 11:27:17;;;;;;;4.47;1.15;;;12.20;99.90;;;;;;4953930;28;20708;-79
2022/11/02 11:29:57;;;;;;;3.47;1.90;;;12.30;99.90;;;;;;4968708;28;20066;-79
2022/11/02 11:32:26;;;;;;;1.92;1.20;;;12.30;99.90;;;;;;4975662;28;20046;-79
2022/11/02 11:35:09;;;;;;;3.50;1.10;;;12.30;99.90;;;;;;4986539;28;20117;-79
2022/11/02 11:37:35;;;;;;;3.00;1.42;;;12.30;99.90;;;;;;4977592;28;20700;-79
2022/11/02 11:40:05;;;;;;;3.00;1.08;;;12.30;99.90;;;;;;4967301;28;20062;-79
2022/11/02 11:42:35;;;;;;;12.60;2.83;;;12.30;99.90;;;;;;4968533;28;20038;-81
2022/11/02 11:45:05;;;;;;;3.35;1.83;;;12.30;99.90;;;;;;4969316;28;20045;-83
2022/11/02 11:47:35;;;;;;;1.73;1.13;;;12.30;99.90;;;;;;4985767;28;20088;-84
2022/11/02 11:50:11;;;;;;;4.35;1.55;;;12.30;99.90;;;;;;4976188;28;20465;-81
2022/11/02 11:52:40;;;;;;;1.80;1.08;;;12.30;99.90;;;;;;4979309;28;20046;-83
2022/11/02 11:55:26;;;;;;;2.90;1.23;;;12.40;99.90;;;;;;4986867;28;20088;-82
2022/11/02 11:58:05;;;;;;;2.33;1.20;;;12.30;99.90;;;;;;4983266;28;20077;-80
2022/11/02 12:00:31;;;;;;;3.35;2.10;;;12.30;99.90;;;;;;4981973;28;20118;-79
2022/11/02 12:03:05;;;;;;;7.22;1.40;;;12.30;99.90;;;;;;4967706;28;20468;-79
2022/11/02 12:05:47;;;;;;;3.85;1.67;;;12.30;99.90;;;;;;4967767;28;20533;-79
2022/11/02 12:08:56;;;;;;;4.00;1.98;;;12.30;99.90;;;;;;4982276;28;20047;-80
2022/11/02 12:11:51;;;;;;;10.18;2.53;;;12.30;99.90;;;;;;4952943;28;20053;-93
2022/11/02 12:14:46;;;;;;;2.45;1.70;;;12.40;99.90;;;;;;4968236;28;20125;-81
2022/11/02 12:17:35;;;;;;;3.08;1.30;;;12.40;99.90;;;;;;4962623;28;20700;-87
2022/11/02 12:20:29;;;;;;;7.88;2.00;;;12.40;99.90;;;;;;4973446;28;20085;-92
2022/11/02 12:23:43;;;;;;;1.90;1.50;;;12.40;99.90;;;;;;4989426;28;20054;-90
2022/11/02 12:26:29;;;;;;;9.20;1.75;;;12.40;99.90;;;;;;4964228;28;20062;-86
2022/11/02 12:29:02;;;;;;;2.78;1.50;;;12.60;99.90;;;;;;4970152;28;20048;-91
2022/11/02 12:31:40;;;;;;;4.03;1.65;;;12.60;99.90;;;;;;4973322;28;20043;-83
2022/11/02 12:34:34;;;;;;;9.93;2.60;;;12.70;99.90;;;;;;4976162;28;20050;-83
2022/11/02 12:37:11;;;;;;;9.73;1.48;;;12.70;99.90;;;;;;4984708;28;20042;-85
2022/11/02 12:39:56;;;;;;;9.38;2.30;;;12.80;99.90;;;;;;4986762;28;20117;-79
2022/11/02 12:42:26;;;;;;;5.65;1.55;;;12.80;99.90;;;;;;4986009;28;20038;-82
2022/11/02 12:45:07;;;;;;;14.73;2.13;;;12.80;99.90;;;;;;4986157;28;20083;-80
2022/11/02 12:47:49;;;;;;;5.10;2.00;;;12.80;99.90;;;;;;4978124;28;20045;-81
2022/11/02 12:50:24;;;;;;;4.22;1.65;;;12.80;99.90;;;;;;4986746;28;20042;-81
2022/11/02 12:53:31;;;;;;;4.57;2.25;;;12.80;99.90;;;;;;4986007;28;20101;-81
2022/11/02 12:56:00;;;;;;;6.85;2.15;;;12.70;99.90;;;;;;4972845;28;20050;-81
2022/11/02 12:58:33;;;;;;;7.50;2.33;;;12.70;99.90;;;;;;4972052;28;20063;-81
2022/11/02 13:01:21;;;;;;;12.02;1.80;;;12.70;99.90;;;;;;4971831;28;20046;-82
2022/11/02 13:03:57;;;;;;;5.90;1.95;;;12.70;99.90;;;;;;4951413;28;20133;-81
2022/11/02 13:06:47;;;;;;;3.35;1.55;;;12.70;99.90;;;;;;4966123;28;20483;-81
2022/11/02 13:09:50;;;;;;;15.80;1.73;;;12.70;99.90;;;;;;4964440;28;20125;-81
2022/11/02 13:12:20;;;;;;;8.93;2.28;;;12.70;99.90;;;;;;4964041;28;20061;-81
2022/11/02 13:14:48;;;;;;;5.95;2.05;;;12.60;99.90;;;;;;4966475;28;20057;-82
2022/11/02 13:17:38;;;;;;;3.03;1.30;;;12.70;99.90;;;;;;4966041;28;20058;-81
2022/11/02 13:20:25;;;;;;;3.25;1.92;;;12.60;99.90;;;;;;4965690;28;20046;-82
2022/11/02 13:23:20;;;;;;;7.05;1.77;;;12.60;99.90;;;;;;4966009;28;20077;-82